Paint Mill Lake, Indiana
Current Conditions -  °F | °C
As of 9:53 AM on Saturday 25 Oct 2014 (Local Time) from KHUF Reporting Station
Few Clouds Few Clouds  
Wind Chill: 14°   Ceiling: Unl
Heat Index: 14°   Visibility: 10mi
Dew Point: 12°   Wind: 7mph
Humidity: 87%   Direction: 240°WSW
Pressure: 30"   Gusts: NA
Location:  39.3587°N, 87.4056°W
Report Text: KHUF 251353Z 24006KT 10SM FEW018 14/12 A3000 RMK AO2 SLP160 T01440122
Loading
Personal Weather Stations






























Interactive Weather Map
Tropical Storm Tracking
New forecast layout! Learn more

10-Day Weather Forecast

Advertisements
Track Severe Weather on mobile